Time;durP1;ratioP1;P1;durP2;ratioP2;P2;SDS_P1;SDS_P2;PMS_P1;PMS_P2;Temp;Humidity;BMP_temperature;BMP_pressure;BME280_temperature;BME280_humidity;BME280_pressure;Samples;Min_cycle;Max_cycle;Signal;HPM_P1;HPM_P2
2021/04/05 00:00:03;;;;;;;;;;;;;;;19.03;39.76;100400.66;2112227;28;1803;-31
2021/04/05 00:01:03;;;;;;;;;;;;;;;19.03;39.84;100406.31;2107847;28;1597;-31
2021/04/05 00:02:04;;;;;;;;;;;;;;;19.04;39.71;100401.47;2102929;28;2178;-30
2021/04/05 00:03:05;;;;;;;;;;;;;;;19.06;39.84;100413.28;2108780;28;1658;-31
2021/04/05 00:04:06;;;;;;;;;;;;;;;19.06;39.66;100407.63;2105784;28;2151;-32
2021/04/05 00:05:07;;;;;;;;;;;;;;;19.07;39.95;100403.59;2114126;28;1235;-33
2021/04/05 00:06:08;;;;;;;;;;;;;;;19.07;39.82;100412.09;2115226;28;1558;-31
2021/04/05 00:07:10;;;;;;;;;;;;;;;19.07;40.07;100412.91;2109371;28;1784;-36
2021/04/05 00:08:10;;;;;;;;;;;;;;;19.09;39.86;100412.59;2114516;28;1199;-33
2021/04/05 00:09:13;;;;;;;;;;;;;;;19.09;39.97;100404.91;2107728;28;3863;-32
2021/04/05 00:10:14;;;;;;;;;;;;;;;19.10;40.02;100397.22;2111075;28;1303;-31
2021/04/05 00:11:14;;;;;;;;;;;;;;;19.11;40.11;100398.91;2113972;28;1149;-31
2021/04/05 00:12:15;;;;;;;;;;;;;;;19.11;40.00;100385.53;2108615;28;1968;-32
2021/04/05 00:13:16;;;;;;;;;;;;;;;19.12;39.97;100390.03;2113960;28;1656;-33
2021/04/05 00:14:16;;;;;;;;;;;;;;;19.13;40.14;100391.69;2107103;28;2294;-32
2021/04/05 00:15:17;;;;;;;;;;;;;;;19.12;40.16;100395.69;2112081;28;1175;-31
2021/04/05 00:16:18;;;;;;;;;;;;;;;19.13;40.29;100396.50;2106705;28;2219;-33
2021/04/05 00:17:19;;;;;;;;;;;;;;;19.13;40.18;100386.03;2113759;28;1711;-31
2021/04/05 00:18:19;;;;;;;;;;;;;;;19.15;40.40;100394.16;2109860;27;1406;-32
2021/04/05 00:19:20;;;;;;;;;;;;;;;19.16;40.38;100389.31;2099251;28;2157;-32
2021/04/05 00:20:21;;;;;;;;;;;;;;;19.16;40.51;100389.31;2110462;28;1342;-32
2021/04/05 00:21:24;;;;;;;;;;;;;;;19.17;40.40;100379.66;2102012;28;1015;-33
2021/04/05 00:22:25;;;;;;;;;;;;;;;19.17;40.42;100373.97;2106180;28;2105;-31
2021/04/05 00:23:26;;;;;;;;;;;;;;;19.18;40.46;100367.94;2114086;28;1235;-32
2021/04/05 00:24:27;;;;;;;;;;;;;;;19.19;40.36;100368.75;2099557;28;1848;-32
2021/04/05 00:25:27;;;;;;;;;;;;;;;19.19;40.37;100358.28;2107655;28;1411;-34
2021/04/05 00:26:28;;;;;;;;;;;;;;;19.20;40.50;100356.25;2113598;28;1169;-31
2021/04/05 00:27:29;;;;;;;;;;;;;;;19.20;40.61;100350.59;2114924;28;1528;-32
2021/04/05 00:28:30;;;;;;;;;;;;;;;19.20;40.66;100347.75;2109362;28;1761;-30
2021/04/05 00:29:30;;;;;;;;;;;;;;;19.20;40.49;100337.22;2112128;28;2159;-33
2021/04/05 00:30:31;;;;;;;;;;;;;;;19.21;40.61;100343.72;2110023;28;1424;-31
2021/04/05 00:31:32;;;;;;;;;;;;;;;19.22;40.58;100328.38;2113092;28;1195;-31
2021/04/05 00:32:32;;;;;;;;;;;;;;;19.22;40.76;100334.06;2105132;28;2016;-31
2021/04/05 00:33:33;;;;;;;;;;;;;;;19.23;40.69;100327.19;2106799;28;1304;-34
2021/04/05 00:34:34;;;;;;;;;;;;;;;19.23;40.64;100328.00;2111523;28;2108;-31
2021/04/05 00:35:35;;;;;;;;;;;;;;;19.24;40.93;100334.50;2113982;28;1644;-30
2021/04/05 00:36:35;;;;;;;;;;;;;;;19.25;40.91;100322.00;2108002;28;1612;-31
2021/04/05 00:37:36;;;;;;;;;;;;;;;19.25;40.96;100317.16;2112220;28;1190;-32
2021/04/05 00:38:37;;;;;;;;;;;;;;;19.26;40.89;100320.81;2109838;28;2147;-33
2021/04/05 00:39:39;;;;;;;;;;;;;;;19.27;40.98;100313.94;2108695;27;2062;-31
2021/04/05 00:40:40;;;;;;;;;;;;;;;19.27;41.06;100309.13;2095325;28;2311;-33
2021/04/05 00:41:41;;;;;;;;;;;;;;;19.28;41.22;100307.09;2112219;28;2534;-31
2021/04/05 00:42:41;;;;;;;;;;;;;;;19.28;41.07;100302.25;2101273;28;2097;-32
2021/04/05 00:43:42;;;;;;;;;;;;;;;19.28;41.02;100296.59;2111699;28;2112;-33
2021/04/05 00:44:43;;;;;;;;;;;;;;;19.29;41.19;100288.91;2112808;28;1195;-32
2021/04/05 00:45:45;;;;;;;;;;;;;;;19.30;41.10;100273.56;2105585;28;3775;-32
2021/04/05 00:46:46;;;;;;;;;;;;;;;19.29;41.20;100280.41;2112120;28;1736;-30
2021/04/05 00:47:47;;;;;;;;;;;;;;;19.29;41.30;100278.38;2113687;28;1876;-30
2021/04/05 00:48:48;;;;;;;;;;;;;;;19.30;41.14;100274.38;2104731;28;2274;-32
2021/04/05 00:49:49;;;;;;;;;;;;;;;19.31;41.36;100275.19;2099465;28;2303;-31
2021/04/05 00:50:52;;;;;;;;;;;;;;;19.31;41.31;100275.19;2105167;28;1726;-31
2021/04/05 00:51:52;;;;;;;;;;;;;;;19.31;41.37;100261.03;2111748;28;1414;-32
2021/04/05 00:52:53;;;;;;;;;;;;;;;19.32;41.40;100257.81;2106867;28;1917;-32
2021/04/05 00:53:54;;;;;;;;;;;;;;;19.32;41.33;100251.31;2106383;28;2126;-33
2021/04/05 00:54:55;;;;;;;;;;;;;;;19.33;41.28;100253.81;2105687;28;1417;-31
2021/04/05 00:55:58;;;;;;;;;;;;;;;19.33;41.39;100250.16;2105840;28;2167;-31
2021/04/05 00:56:59;;;;;;;;;;;;;;;19.34;41.41;100249.78;2109401;28;1681;-33
2021/04/05 00:58:00;;;;;;;;;;;;;;;19.34;41.38;100244.09;2108837;28;1485;-33
2021/04/05 00:59:00;;;;;;;;;;;;;;;19.35;41.49;100250.59;2112664;28;1290;-31
2021/04/05 01:00:02;;;;;;;;;;;;;;;19.35;41.48;100240.09;2107305;28;2241;-33
2021/04/05 01:01:02;;;;;;;;;;;;;;;19.37;41.44;100236.91;2109975;28;1865;-33
2021/04/05 01:02:03;;;;;;;;;;;;;;;19.36;41.55;100243.75;2106576;28;1907;-33
2021/04/05 01:03:04;;;;;;;;;;;;;;;19.36;41.50;100243.75;2115312;28;1290;-32
2021/04/05 01:04:05;;;;;;;;;;;;;;;19.35;41.58;100240.09;2103064;28;2168;-33
2021/04/05 01:05:06;;;;;;;;;;;;;;;19.36;41.61;100243.75;2107536;28;1133;-30
2021/04/05 01:06:06;;;;;;;;;;;;;;;19.36;41.52;100236.06;2112626;28;1567;-31
2021/04/05 01:07:07;;;;;;;;;;;;;;;19.38;41.69;100246.22;2109472;28;1396;-32
2021/04/05 01:08:08;;;;;;;;;;;;;;;19.38;41.71;100247.09;2112206;28;1101;-31
2021/04/05 01:09:09;;;;;;;;;;;;;;;19.38;41.88;100235.75;2108084;28;3758;-32
2021/04/05 01:10:09;;;;;;;;;;;;;;;19.38;41.73;100235.75;2105351;28;2346;-32
2021/04/05 01:11:10;;;;;;;;;;;;;;;19.39;42.00;100233.72;2106338;28;2087;-32
2021/04/05 01:12:11;;;;;;;;;;;;;;;19.40;41.86;100224.00;2103141;28;1914;-33
2021/04/05 01:13:12;;;;;;;;;;;;;;;19.40;41.99;100218.34;2112391;28;1223;-31
2021/04/05 01:14:13;;;;;;;;;;;;;;;19.41;41.92;100202.97;2107429;28;2084;-31
2021/04/05 01:15:13;;;;;;;;;;;;;;;19.40;42.13;100202.16;2106923;28;2351;-31
2021/04/05 01:16:20;;;;;;;;;;;;;;;19.41;41.98;100197.28;2113054;28;1184;-31
2021/04/05 01:17:20;;;;;;;;;;;;;;;19.41;42.15;100186.81;2115566;28;1605;-32
2021/04/05 01:18:21;;;;;;;;;;;;;;;19.41;42.06;100192.47;2112126;28;1341;-32
2021/04/05 01:19:22;;;;;;;;;;;;;;;19.42;42.18;100176.28;2103430;28;2147;-31
2021/04/05 01:20:23;;;;;;;;;;;;;;;19.43;42.23;100167.38;2103895;28;2111;-32
2021/04/05 01:21:24;;;;;;;;;;;;;;;19.43;42.33;100167.38;2105679;28;2481;-32
2021/04/05 01:22:25;;;;;;;;;;;;;;;19.44;42.42;100165.41;2108147;28;2113;-33
2021/04/05 01:23:25;;;;;;;;;;;;;;;19.44;42.38;100166.22;2104181;28;1290;-32
2021/04/05 01:24:27;;;;;;;;;;;;;;;19.44;42.54;100152.03;2109877;28;1926;-34
2021/04/05 01:25:27;;;;;;;;;;;;;;;19.43;42.40;100156.03;2109721;28;1831;-34
2021/04/05 01:26:31;;;;;;;;;;;;;;;19.45;42.67;100148.00;2105821;28;1673;-30
2021/04/05 01:27:32;;;;;;;;;;;;;;;19.44;42.57;100143.53;2103809;28;2025;-32
2021/04/05 01:28:33;;;;;;;;;;;;;;;19.46;42.82;100146.00;2103750;28;1479;-32
2021/04/05 01:29:34;;;;;;;;;;;;;;;19.45;42.80;100141.50;2104442;28;2101;-31
2021/04/05 01:30:35;;;;;;;;;;;;;;;19.45;42.76;100142.34;2106834;28;2128;-32
2021/04/05 01:31:36;;;;;;;;;;;;;;;19.46;42.67;100131.81;2103797;28;1098;-34
2021/04/05 01:32:37;;;;;;;;;;;;;;;19.46;42.66;100132.66;2107114;28;2020;-31
2021/04/05 01:33:37;;;;;;;;;;;;;;;19.46;42.92;100132.66;2111324;28;1217;-33
2021/04/05 01:34:38;;;;;;;;;;;;;;;19.47;43.02;100131.47;2112318;28;1690;-34
2021/04/05 01:35:39;;;;;;;;;;;;;;;19.48;43.00;100132.28;2106763;28;2275;-33
2021/04/05 01:36:40;;;;;;;;;;;;;;;19.48;43.05;100129.44;2107464;28;2150;-31
2021/04/05 01:37:40;;;;;;;;;;;;;;;19.49;43.62;100131.94;2112004;28;2451;-31
2021/04/05 01:38:41;;;;;;;;;;;;;;;19.50;43.21;100125.06;2108687;28;1858;-34
2021/04/05 01:39:42;;;;;;;;;;;;;;;19.49;43.22;100117.75;2112548;28;1214;-32
2021/04/05 01:40:43;;;;;;;;;;;;;;;19.49;43.18;100114.91;2108727;28;2229;-32
2021/04/05 01:41:44;;;;;;;;;;;;;;;19.48;43.17;100109.59;2112308;28;1128;-32
2021/04/05 01:42:46;;;;;;;;;;;;;;;19.49;43.10;100099.88;2109473;28;1127;-31
2021/04/05 01:43:48;;;;;;;;;;;;;;;19.49;43.24;100094.19;2110000;28;1176;-32
2021/04/05 01:44:49;;;;;;;;;;;;;;;19.49;43.15;100083.72;2110391;28;1838;-33
2021/04/05 01:45:49;;;;;;;;;;;;;;;19.50;43.53;100081.69;2102438;28;3689;-33
2021/04/05 01:46:50;;;;;;;;;;;;;;;19.50;43.47;100076.84;2104754;28;1541;-32
2021/04/05 01:47:51;;;;;;;;;;;;;;;19.50;43.37;100067.50;2107853;28;2184;-33
2021/04/05 01:48:52;;;;;;;;;;;;;;;19.51;43.40;100066.31;2110612;28;1547;-31
2021/04/05 01:49:52;;;;;;;;;;;;;;;19.49;43.37;100061.00;2111674;28;1149;-31
2021/04/05 01:50:54;;;;;;;;;;;;;;;19.50;43.32;100045.63;2110589;28;2661;-34
2021/04/05 01:51:55;;;;;;;;;;;;;;;19.51;43.29;100060.63;2110462;28;1256;-32
2021/04/05 01:52:56;;;;;;;;;;;;;;;19.51;43.35;100066.31;2111732;28;1909;-33
2021/04/05 01:53:57;;;;;;;;;;;;;;;19.51;43.36;100067.13;2110191;28;1248;-31
2021/04/05 01:54:57;;;;;;;;;;;;;;;19.51;43.43;100060.63;2111969;28;1160;-32
2021/04/05 01:55:58;;;;;;;;;;;;;;;19.51;43.43;100061.44;2107818;28;2171;-33
2021/04/05 01:56:59;;;;;;;;;;;;;;;19.51;43.49;100052.94;2106745;28;2222;-32
2021/04/05 01:58:00;;;;;;;;;;;;;;;19.51;43.42;100040.78;2111352;28;1138;-32
2021/04/05 01:59:00;;;;;;;;;;;;;;;19.52;43.50;100040.44;2107315;28;2302;-32
2021/04/05 02:00:01;;;;;;;;;;;;;;;19.52;43.36;100031.91;2109918;28;1863;-32
2021/04/05 02:01:02;;;;;;;;;;;;;;;19.53;43.42;100035.56;2111044;28;1086;-32
2021/04/05 02:02:03;;;;;;;;;;;;;;;19.53;43.59;100029.91;2114162;28;1564;-35
2021/04/05 02:03:03;;;;;;;;;;;;;;;19.53;43.57;100027.88;2107936;28;1440;-31
2021/04/05 02:04:04;;;;;;;;;;;;;;;19.53;43.50;100015.72;2106712;28;2073;-32
2021/04/05 02:05:05;;;;;;;;;;;;;;;19.54;43.51;100020.19;2107789;28;1334;-33
2021/04/05 02:06:06;;;;;;;;;;;;;;;19.54;43.62;100014.50;2106675;28;1943;-33
2021/04/05 02:07:06;;;;;;;;;;;;;;;19.53;43.49;100005.19;2109125;28;2191;-32
2021/04/05 02:08:07;;;;;;;;;;;;;;;19.53;43.58;100004.38;2110937;28;1101;-33
2021/04/05 02:09:08;;;;;;;;;;;;;;;19.54;43.68;99994.66;2106621;28;2576;-35
2021/04/05 02:10:08;;;;;;;;;;;;;;;19.54;43.74;100001.16;2106582;28;1801;-32
2021/04/05 02:11:09;;;;;;;;;;;;;;;19.54;43.69;99994.66;2111547;28;1403;-31
2021/04/05 02:12:10;;;;;;;;;;;;;;;19.55;43.66;100002.81;2109943;28;1648;-30
2021/04/05 02:13:11;;;;;;;;;;;;;;;19.54;43.67;99995.47;2108339;28;2196;-31
2021/04/05 02:14:11;;;;;;;;;;;;;;;19.55;43.70;99988.63;2107757;28;1863;-31
2021/04/05 02:15:12;;;;;;;;;;;;;;;19.55;43.69;99984.97;2110525;28;1537;-33
2021/04/05 02:16:13;;;;;;;;;;;;;;;19.56;43.87;99981.75;2111135;28;2151;-34
2021/04/05 02:17:14;;;;;;;;;;;;;;;19.55;43.76;99977.28;2105688;28;2104;-31
2021/04/05 02:18:14;;;;;;;;;;;;;;;19.55;43.79;99971.63;2109347;28;1722;-30
2021/04/05 02:19:15;;;;;;;;;;;;;;;19.57;43.94;99974.06;2112117;28;1207;-33
2021/04/05 02:20:16;;;;;;;;;;;;;;;19.56;43.91;99966.75;2104937;28;1949;-30
2021/04/05 02:21:17;;;;;;;;;;;;;;;19.56;43.98;99966.75;2106928;28;1237;-32
2021/04/05 02:22:18;;;;;;;;;;;;;;;19.56;43.84;99959.06;2104178;28;2184;-34
2021/04/05 02:23:18;;;;;;;;;;;;;;;19.56;43.87;99961.09;2109815;28;1198;-31
2021/04/05 02:24:19;;;;;;;;;;;;;;;19.61;45.07;99960.00;2111907;28;1297;-31
2021/04/05 02:25:20;;;;;;;;;;;;;;;19.62;44.78;99942.59;2107376;28;1761;-33
2021/04/05 02:26:21;;;;;;;;;;;;;;;19.61;44.39;99937.31;2108222;28;1992;-32
2021/04/05 02:27:22;;;;;;;;;;;;;;;19.58;44.42;99934.00;2109244;28;2144;-31
2021/04/05 02:28:22;;;;;;;;;;;;;;;19.60;44.41;99936.47;2113502;28;1136;-33
2021/04/05 02:29:23;;;;;;;;;;;;;;;19.58;44.19;99933.19;2107209;28;2417;-31
2021/04/05 02:30:24;;;;;;;;;;;;;;;19.58;44.23;99928.31;2113283;28;1629;-31
2021/04/05 02:31:24;;;;;;;;;;;;;;;19.58;44.31;99924.66;2114477;28;1140;-32
2021/04/05 02:32:25;;;;;;;;;;;;;;;19.61;44.22;99920.28;2102281;28;2220;-33
2021/04/05 02:33:26;;;;;;;;;;;;;;;19.58;44.21;99922.66;2114472;28;1722;-31
2021/04/05 02:34:27;;;;;;;;;;;;;;;19.58;44.32;99916.16;2106543;28;1530;-31
2021/04/05 02:35:27;;;;;;;;;;;;;;;19.61;44.24;99920.28;2107190;28;1936;-35
2021/04/05 02:36:28;;;;;;;;;;;;;;;19.59;44.23;99906.44;2105675;28;1862;-30
2021/04/05 02:37:34;;;;;;;;;;;;;;;19.62;44.24;99910.56;2100774;28;2112;-31
2021/04/05 02:38:34;;;;;;;;;;;;;;;19.61;44.16;99909.75;2112256;28;1619;-33
2021/04/05 02:39:36;;;;;;;;;;;;;;;19.60;44.18;99899.59;2106391;28;976;-31
2021/04/05 02:40:36;;;;;;;;;;;;;;;19.61;44.36;99904.06;2102536;28;2231;-36
2021/04/05 02:41:37;;;;;;;;;;;;;;;19.62;44.11;99905.72;2111994;28;1775;-33
2021/04/05 02:42:38;;;;;;;;;;;;;;;19.62;44.14;99899.22;2115086;28;1857;-31
2021/04/05 02:43:39;;;;;;;;;;;;;;;19.62;44.27;99899.22;2104792;28;1639;-31
2021/04/05 02:44:39;;;;;;;;;;;;;;;19.61;44.35;99883.41;2106184;28;1715;-34
2021/04/05 02:45:40;;;;;;;;;;;;;;;19.62;44.29;99882.19;2105858;28;3770;-32
2021/04/05 02:46:41;;;;;;;;;;;;;;;19.61;44.38;99874.88;2106966;28;1336;-31
2021/04/05 02:47:42;;;;;;;;;;;;;;;19.62;44.25;99870.84;2109328;28;2190;-34
2021/04/05 02:48:42;;;;;;;;;;;;;;;19.62;44.18;99868.81;2114361;28;1718;-34
2021/04/05 02:49:43;;;;;;;;;;;;;;;19.63;44.38;99869.63;2107174;28;1260;-33
2021/04/05 02:50:44;;;;;;;;;;;;;;;19.62;44.16;99871.66;2108270;28;2162;-32
2021/04/05 02:51:45;;;;;;;;;;;;;;;19.62;44.24;99865.16;2113308;28;1111;-31
2021/04/05 02:52:45;;;;;;;;;;;;;;;19.61;44.17;99855.84;2106855;28;1976;-34
2021/04/05 02:53:46;;;;;;;;;;;;;;;19.61;44.22;99853.00;2104131;28;1662;-32
2021/04/05 02:54:47;;;;;;;;;;;;;;;19.61;44.23;99850.16;2112725;28;1691;-31
2021/04/05 02:55:48;;;;;;;;;;;;;;;19.62;44.28;99850.97;2110333;28;3140;-32
2021/04/05 02:56:48;;;;;;;;;;;;;;;19.62;44.28;99845.31;2110161;28;2136;-32
2021/04/05 02:57:49;;;;;;;;;;;;;;;19.62;44.36;99851.81;2107806;28;2211;-33
2021/04/05 02:58:50;;;;;;;;;;;;;;;19.63;44.29;99846.94;2111947;28;2532;-34
2021/04/05 02:59:51;;;;;;;;;;;;;;;19.62;44.23;99834.78;2113694;28;1192;-31
2021/04/05 03:00:51;;;;;;;;;;;;;;;19.62;44.26;99843.28;2105028;28;2194;-31
2021/04/05 03:01:52;;;;;;;;;;;;;;;19.63;44.31;99838.44;2112814;28;1214;-32
2021/04/05 03:02:54;;;;;;;;;;;;;;;19.63;44.40;99832.75;2113542;28;1601;-33
2021/04/05 03:03:55;;;;;;;;;;;;;;;19.63;44.29;99827.09;2107376;28;1378;-32
2021/04/05 03:04:55;;;;;;;;;;;;;;;19.63;44.22;99827.09;2114157;28;1868;-31
2021/04/05 03:05:56;;;;;;;;;;;;;;;19.62;44.31;99826.25;2104336;28;2163;-34
2021/04/05 03:06:57;;;;;;;;;;;;;;;19.62;44.35;99826.25;2105161;28;1689;-32
2021/04/05 03:07:58;;;;;;;;;;;;;;;19.63;44.41;99835.59;2113861;28;1233;-32
2021/04/05 03:09:01;;;;;;;;;;;;;;;19.63;44.31;99830.78;2100568;28;3825;-31
2021/04/05 03:10:02;;;;;;;;;;;;;;;19.64;44.38;99837.25;2111546;28;1499;-32
2021/04/05 03:11:02;;;;;;;;;;;;;;;19.63;44.29;99830.78;2106141;28;1576;-32
2021/04/05 03:12:03;;;;;;;;;;;;;;;19.63;44.31;99835.59;2105446;28;1716;-33
2021/04/05 03:13:04;;;;;;;;;;;;;;;19.64;44.43;99823.88;2108770;28;1980;-32
2021/04/05 03:14:05;;;;;;;;;;;;;;;19.64;44.37;99817.41;2102881;28;2108;-33
2021/04/05 03:15:05;;;;;;;;;;;;;;;19.64;44.38;99815.38;2107503;28;1477;-31
2021/04/05 03:16:06;;;;;;;;;;;;;;;19.65;44.21;99810.53;2110974;28;1753;-33
2021/04/05 03:17:07;;;;;;;;;;;;;;;19.64;44.39;99808.88;2106375;28;1240;-32
2021/04/05 03:18:08;;;;;;;;;;;;;;;19.64;44.35;99814.56;2105886;28;2125;-31
2021/04/05 03:19:09;;;;;;;;;;;;;;;19.64;44.38;99803.22;2113799;28;1150;-33
2021/04/05 03:20:09;;;;;;;;;;;;;;;19.64;44.30;99808.88;2107690;28;1245;-31
2021/04/05 03:21:10;;;;;;;;;;;;;;;19.65;44.25;99810.53;2113062;28;1466;-31
2021/04/05 03:22:11;;;;;;;;;;;;;;;19.64;44.36;99812.53;2113191;28;1079;-31
2021/04/05 03:23:12;;;;;;;;;;;;;;;19.64;44.38;99809.69;2105549;28;2171;-33
2021/04/05 03:24:12;;;;;;;;;;;;;;;19.64;44.36;99801.19;2114015;28;1168;-32
2021/04/05 03:25:13;;;;;;;;;;;;;;;19.65;44.45;99794.31;2108828;28;1676;-32
2021/04/05 03:26:14;;;;;;;;;;;;;;;19.65;44.38;99794.31;2109813;28;1992;-32
2021/04/05 03:27:15;;;;;;;;;;;;;;;19.65;44.46;99782.16;2112556;28;1236;-34
2021/04/05 03:28:15;;;;;;;;;;;;;;;19.65;44.43;99785.00;2103959;28;2203;-31
2021/04/05 03:29:16;;;;;;;;;;;;;;;19.66;44.53;99781.00;2112828;28;1291;-32
2021/04/05 03:30:17;;;;;;;;;;;;;;;19.65;44.50;99770.81;2121504;28;1164;-32
2021/04/05 03:31:18;;;;;;;;;;;;;;;19.66;44.47;99772.50;2115418;28;1217;-32
2021/04/05 03:32:18;;;;;;;;;;;;;;;19.66;44.56;99761.16;2113480;28;2111;-34
2021/04/05 03:33:19;;;;;;;;;;;;;;;19.65;44.50;99765.94;2108103;28;2283;-30
2021/04/05 03:34:20;;;;;;;;;;;;;;;19.65;44.43;99770.81;2111260;28;1344;-31
2021/04/05 03:35:21;;;;;;;;;;;;;;;19.65;44.61;99771.63;2113191;28;1209;-32
2021/04/05 03:36:21;;;;;;;;;;;;;;;19.66;44.63;99775.34;2107942;28;1841;-31
2021/04/05 03:37:22;;;;;;;;;;;;;;;19.65;44.54;99774.44;2108990;28;2168;-31
2021/04/05 03:38:23;;;;;;;;;;;;;;;19.65;44.53;99760.25;2100637;28;2158;-31
2021/04/05 03:39:24;;;;;;;;;;;;;;;19.64;44.71;99761.47;2107091;28;1846;-30
2021/04/05 03:40:26;;;;;;;;;;;;;;;19.65;44.58;99756.63;2112928;28;1145;-32
2021/04/05 03:41:27;;;;;;;;;;;;;;;19.65;44.61;99756.63;2105972;28;1834;-32
2021/04/05 03:42:28;;;;;;;;;;;;;;;19.65;44.54;99765.13;2110076;28;1139;-31
2021/04/05 03:43:29;;;;;;;;;;;;;;;19.65;44.53;99757.44;2106774;28;2130;-31
2021/04/05 03:44:29;;;;;;;;;;;;;;;19.65;44.60;99742.44;2107851;28;1150;-32
2021/04/05 03:45:30;;;;;;;;;;;;;;;19.65;44.64;99748.09;2109392;28;3871;-31
2021/04/05 03:46:31;;;;;;;;;;;;;;;19.65;44.66;99746.09;2107027;28;2400;-31
2021/04/05 03:47:32;;;;;;;;;;;;;;;19.65;44.71;99737.56;2109897;28;1482;-32
2021/04/05 03:48:32;;;;;;;;;;;;;;;19.65;44.60;99731.91;2107094;28;2131;-31
2021/04/05 03:49:34;;;;;;;;;;;;;;;19.66;44.62;99741.28;2112712;28;1195;-30
2021/04/05 03:50:34;;;;;;;;;;;;;;;19.66;44.67;99738.44;2113500;28;1535;-33
2021/04/05 03:51:35;;;;;;;;;;;;;;;19.67;44.85;99740.09;2112637;28;1427;-31
2021/04/05 03:52:36;;;;;;;;;;;;;;;19.66;44.64;99741.28;2113935;28;1979;-33
2021/04/05 03:53:37;;;;;;;;;;;;;;;19.67;44.64;99740.09;2106477;28;1993;-33
2021/04/05 03:54:38;;;;;;;;;;;;;;;19.67;44.77;99745.75;2112158;28;1385;-33
2021/04/05 03:55:38;;;;;;;;;;;;;;;19.67;44.64;99740.09;2111930;28;1770;-33
2021/04/05 03:56:39;;;;;;;;;;;;;;;19.66;44.74;99739.25;2105972;28;1801;-31
2021/04/05 03:57:40;;;;;;;;;;;;;;;19.66;44.70;99732.78;2113679;28;1234;-33
2021/04/05 03:58:41;;;;;;;;;;;;;;;19.66;44.77;99727.09;2111421;28;2118;-32
2021/04/05 03:59:41;;;;;;;;;;;;;;;19.67;44.78;99720.22;2107702;28;1554;-32
2021/04/05 04:00:42;;;;;;;;;;;;;;;19.66;45.00;99710.91;2113002;28;1265;-33
2021/04/05 04:01:43;;;;;;;;;;;;;;;19.67;44.95;99723.06;2109336;28;1155;-32
2021/04/05 04:02:46;;;;;;;;;;;;;;;19.67;44.91;99720.22;2114043;28;1560;-31
2021/04/05 04:04:01;;;;;;;;;;;;;;;19.67;44.84;99708.88;2105240;28;2162;-32
2021/04/05 04:05:07;;;;;;;;;;;;;;;19.66;44.94;99705.22;2107644;28;1358;-32
2021/04/05 04:06:07;;;;;;;;;;;;;;;19.67;45.09;99709.69;2107500;28;1824;-32
2021/04/05 04:07:16;;;;;;;;;;;;;;;19.66;44.94;99710.91;2112055;28;1324;-32
2021/04/05 04:08:26;;;;;;;;;;;;;;;19.67;45.02;99712.53;2114833;28;1605;-31
2021/04/05 04:09:27;;;;;;;;;;;;;;;19.68;45.01;99731.19;2105456;28;3830;-33
2021/04/05 04:10:29;;;;;;;;;;;;;;;19.68;45.01;99713.34;2108235;28;2346;-31
2021/04/05 04:11:30;;;;;;;;;;;;;;;19.68;45.00;99717.00;2111302;28;1125;-32
2021/04/05 04:12:30;;;;;;;;;;;;;;;19.68;44.98;99717.00;2111303;28;1787;-32
2021/04/05 04:13:31;;;;;;;;;;;;;;;19.68;45.00;99702.81;2109330;28;2130;-33
2021/04/05 04:14:32;;;;;;;;;;;;;;;19.68;45.20;99708.47;2113220;28;1173;-31
2021/04/05 04:15:33;;;;;;;;;;;;;;;19.69;45.17;99706.50;2114142;28;1600;-35
2021/04/05 04:16:33;;;;;;;;;;;;;;;19.68;45.16;99699.16;2106476;28;2043;-33
2021/04/05 04:17:34;;;;;;;;;;;;;;;19.68;45.12;99696.31;2105249;28;1595;-31
2021/04/05 04:18:36;;;;;;;;;;;;;;;19.68;45.24;99687.81;2105044;28;2056;-32
2021/04/05 04:19:37;;;;;;;;;;;;;;;19.68;45.14;99676.47;2112532;28;991;-33
2021/04/05 04:20:38;;;;;;;;;;;;;;;19.68;45.15;99670.78;2109925;28;2075;-33
2021/04/05 04:21:40;;;;;;;;;;;;;;;19.69;45.20;99672.44;2112354;28;1377;-33
2021/04/05 04:22:41;;;;;;;;;;;;;;;19.68;45.13;99677.28;2113244;28;1080;-33
2021/04/05 04:23:42;;;;;;;;;;;;;;;19.69;45.21;99669.59;2111535;28;2223;-33
2021/04/05 04:24:43;;;;;;;;;;;;;;;19.68;45.03;99667.94;2110887;28;2489;-30
2021/04/05 04:25:44;;;;;;;;;;;;;;;19.67;45.14;99669.97;2112845;28;1108;-33
2021/04/05 04:26:44;;;;;;;;;;;;;;;19.69;45.16;99675.28;2106757;28;1894;-31
2021/04/05 04:27:45;;;;;;;;;;;;;;;19.70;45.30;99674.06;2102371;28;1553;-32
2021/04/05 04:28:46;;;;;;;;;;;;;;;19.69;45.07;99661.91;2103344;28;2231;-32
2021/04/05 04:29:47;;;;;;;;;;;;;;;19.69;45.14;99658.25;2108419;28;1181;-31
2021/04/05 04:30:48;;;;;;;;;;;;;;;19.68;45.25;99654.56;2115367;28;1544;-37
2021/04/05 04:31:48;;;;;;;;;;;;;;;19.69;45.21;99653.41;2113392;28;1549;-31
2021/04/05 04:32:49;;;;;;;;;;;;;;;19.68;45.18;99653.75;2109461;28;1969;-32
2021/04/05 04:33:50;;;;;;;;;;;;;;;19.69;45.30;99656.22;2108001;28;2075;-31
2021/04/05 04:34:51;;;;;;;;;;;;;;;19.69;45.24;99659.06;2109415;28;1178;-31
2021/04/05 04:35:52;;;;;;;;;;;;;;;19.70;45.25;99654.22;2108205;28;1622;-36
2021/04/05 04:36:52;;;;;;;;;;;;;;;19.70;45.14;99649.34;2100637;28;1934;-33
2021/04/05 04:37:53;;;;;;;;;;;;;;;19.70;45.22;99651.38;2106428;28;1158;-33
2021/04/05 04:38:54;;;;;;;;;;;;;;;19.70;45.38;99649.34;2105298;28;2140;-32
2021/04/05 04:39:55;;;;;;;;;;;;;;;19.71;45.29;99648.19;2108770;28;1317;-31
2021/04/05 04:40:55;;;;;;;;;;;;;;;19.70;45.32;99654.22;2103140;28;2040;-37
2021/04/05 04:41:56;;;;;;;;;;;;;;;19.70;45.36;99660.72;2107810;28;1184;-34
2021/04/05 04:42:57;;;;;;;;;;;;;;;19.70;45.35;99652.19;2112423;28;1920;-31
2021/04/05 04:43:58;;;;;;;;;;;;;;;19.70;45.38;99643.69;2108593;28;2053;-35
2021/04/05 04:44:59;;;;;;;;;;;;;;;19.71;45.55;99630.31;2109092;28;1242;-31
2021/04/05 04:46:00;;;;;;;;;;;;;;;19.70;45.31;99626.66;2101220;28;3947;-34
2021/04/05 04:47:01;;;;;;;;;;;;;;;19.70;45.46;99626.66;2106012;28;1787;-32
2021/04/05 04:48:02;;;;;;;;;;;;;;;19.71;45.42;99638.81;2107424;28;1244;-33
2021/04/05 04:49:03;;;;;;;;;;;;;;;19.70;45.49;99638.00;2105371;28;1766;-32
2021/04/05 04:50:03;;;;;;;;;;;;;;;19.71;45.60;99638.81;2109015;28;1206;-33
2021/04/05 04:51:04;;;;;;;;;;;;;;;19.70;45.57;99629.50;2114146;28;1579;-34
2021/04/05 04:52:05;;;;;;;;;;;;;;;19.71;45.57;99624.63;2109606;28;2137;-32
2021/04/05 04:53:06;;;;;;;;;;;;;;;19.71;45.63;99627.47;2103410;28;1916;-32
2021/04/05 04:54:07;;;;;;;;;;;;;;;19.72;45.64;99634.81;2110506;28;1406;-33
2021/04/05 04:55:07;;;;;;;;;;;;;;;19.71;45.79;99627.47;2110359;28;1411;-39
2021/04/05 04:56:08;;;;;;;;;;;;;;;19.71;45.86;99619.81;2108234;28;1815;-34
2021/04/05 04:57:09;;;;;;;;;;;;;;;19.72;45.75;99618.59;2109220;28;2268;-33
2021/04/05 04:58:10;;;;;;;;;;;;;;;19.72;45.79;99627.13;2111838;28;1123;-32
2021/04/05 04:59:11;;;;;;;;;;;;;;;19.71;45.70;99619.81;2110855;28;2148;-33
2021/04/05 05:00:12;;;;;;;;;;;;;;;19.72;45.84;99612.09;2106697;28;2041;-34
2021/04/05 05:01:13;;;;;;;;;;;;;;;19.72;45.95;99612.09;2102174;28;1620;-32
2021/04/05 05:02:14;;;;;;;;;;;;;;;19.72;45.82;99609.28;2111790;28;1691;-31
2021/04/05 05:03:14;;;;;;;;;;;;;;;19.71;46.04;99614.13;2115192;28;1264;-33
2021/04/05 05:04:15;;;;;;;;;;;;;;;19.72;46.00;99598.75;2109366;28;2185;-32
2021/04/05 05:05:16;;;;;;;;;;;;;;;19.72;46.10;99607.25;2104600;28;1384;-32
2021/04/05 05:06:17;;;;;;;;;;;;;;;19.72;46.02;99597.91;2111880;28;1158;-33
2021/04/05 05:07:17;;;;;;;;;;;;;;;19.72;46.12;99603.59;2111024;28;1832;-32
2021/04/05 05:08:18;;;;;;;;;;;;;;;19.73;46.18;99596.72;2109706;28;1134;-33
2021/04/05 05:09:19;;;;;;;;;;;;;;;19.73;46.00;99596.72;2102889;28;3710;-34
2021/04/05 05:10:20;;;;;;;;;;;;;;;19.73;46.05;99599.56;2103659;28;1008;-32
2021/04/05 05:11:21;;;;;;;;;;;;;;;19.72;46.09;99589.41;2106897;28;1633;-34
2021/04/05 05:12:21;;;;;;;;;;;;;;;19.73;46.14;99593.88;2107239;28;1290;-31
2021/04/05 05:13:22;;;;;;;;;;;;;;;19.73;46.10;99589.03;2105236;28;1910;-34
2021/04/05 05:14:23;;;;;;;;;;;;;;;19.73;46.13;99588.19;2101538;28;2633;-35
2021/04/05 05:15:24;;;;;;;;;;;;;;;19.72;46.02;99578.88;2106729;28;1349;-40
2021/04/05 05:16:24;;;;;;;;;;;;;;;19.74;46.08;99575.69;2112721;28;1555;-33
2021/04/05 05:17:25;;;;;;;;;;;;;;;19.73;46.04;99571.19;2113143;28;2163;-36
2021/04/05 05:18:26;;;;;;;;;;;;;;;19.72;45.98;99567.53;2107327;28;1988;-32
2021/04/05 05:19:26;;;;;;;;;;;;;;;19.72;46.04;99564.69;2114550;28;1573;-34